createdAt,value
2019-06-07T00:00:44.872Z,14.30
2019-06-07T00:04:51.871Z,13.40
2019-06-07T00:08:58.662Z,13.83
2019-06-07T00:13:06.861Z,14.20
2019-06-07T00:17:15.923Z,13.77
2019-06-07T00:22:12.214Z,14.23
2019-06-07T00:25:30.717Z,13.87
2019-06-07T00:29:37.561Z,13.83
2019-06-07T00:33:44.403Z,14.63
2019-06-07T00:37:51.222Z,13.23
2019-06-07T00:41:57.939Z,13.37
2019-06-07T00:46:04.814Z,13.73
2019-06-07T00:50:11.660Z,13.90
2019-06-07T00:54:21.484Z,14.43
2019-06-07T00:58:29.232Z,15.10
2019-06-07T01:02:35.390Z,14.33
2019-06-07T01:06:42.154Z,14.70
2019-06-07T01:10:53.575Z,15.40
2019-06-07T01:14:57.482Z,15.37
2019-06-07T01:19:04.220Z,14.37
2019-06-07T01:23:51.791Z,13.97
2019-06-07T01:27:22.596Z,14.07
2019-06-07T01:31:31.314Z,14.80
2019-06-07T01:35:37.354Z,15.63
2019-06-07T01:39:44.110Z,15.40
2019-06-07T01:43:50.996Z,15.30
2019-06-07T01:47:57.723Z,14.80
2019-06-07T01:52:04.495Z,14.93
2019-06-07T01:56:11.260Z,16.03
2019-06-07T02:00:21.571Z,16.47
2019-06-07T02:04:32.404Z,18.27
2019-06-07T02:08:35.875Z,18.47
2019-06-07T02:12:43.672Z,16.70
2019-06-07T02:16:50.761Z,17.10
2019-06-07T02:20:57.518Z,16.57
2019-06-07T02:25:35.114Z,15.30
2019-06-07T02:29:13.926Z,15.60
2019-06-07T02:33:25.813Z,15.60
2019-06-07T02:37:32.309Z,15.60
2019-06-07T02:41:39.854Z,14.67
2019-06-07T02:45:46.490Z,15.27
2019-06-07T02:49:53.561Z,17.77
2019-06-07T02:54:00.262Z,16.07
2019-06-07T02:58:07.516Z,21.17
2019-06-07T03:02:14.789Z,20.40
2019-06-07T03:06:22.031Z,21.30
2019-06-07T03:10:31.679Z,17.03
2019-06-07T03:14:39.466Z,19.17
2019-06-07T03:19:03.013Z,20.37
2019-06-07T03:23:09.822Z,20.73
2019-06-07T03:27:41.624Z,21.60
2019-06-07T03:31:28.427Z,24.70
2019-06-07T03:35:37.460Z,21.43
2019-06-07T03:39:43.804Z,20.47
2019-06-07T03:43:51.644Z,23.83
2019-06-07T03:48:00.731Z,28.43
2019-06-07T03:52:08.459Z,24.77
2019-06-07T03:56:15.797Z,21.23
2019-06-07T04:00:22.973Z,18.93
2019-06-07T04:04:32.388Z,21.40
2019-06-07T04:08:42.009Z,23.53
2019-06-07T04:12:47.775Z,22.23
2019-06-07T04:16:54.560Z,23.53
2019-06-07T04:21:01.323Z,21.30
2019-06-07T04:25:11.799Z,20.30
2019-06-07T04:29:32.850Z,20.67
2019-06-07T04:33:28.778Z,19.53
2019-06-07T04:37:40.630Z,20.00
2019-06-07T04:41:47.571Z,21.33
2019-06-07T04:45:56.941Z,28.67
2019-06-07T04:50:05.614Z,19.07
2019-06-07T04:54:12.517Z,18.93
2019-06-07T04:58:19.330Z,20.27
2019-06-07T05:02:26.122Z,21.43
2019-06-07T05:06:36.289Z,22.73
2019-06-07T05:10:44.072Z,19.30
2019-06-07T05:14:51.089Z,16.67
2019-06-07T05:18:57.803Z,18.47
2019-06-07T05:23:04.546Z,16.07
2019-06-07T05:27:11.383Z,22.70
2019-06-07T05:31:18.177Z,15.60
2019-06-07T05:35:25.318Z,14.30
2019-06-07T05:39:32.747Z,14.50
2019-06-07T05:43:45.558Z,11.67
2019-06-07T05:47:51.123Z,11.37
2019-06-07T05:51:57.489Z,11.53
2019-06-07T05:56:04.746Z,11.23
2019-06-07T06:00:11.873Z,11.73
2019-06-07T06:04:18.655Z,11.27
2019-06-07T06:08:26.623Z,12.57
2019-06-07T06:12:37.329Z,11.37
2019-06-07T06:16:45.371Z,11.80
2019-06-07T06:21:18.845Z,12.00
2019-06-07T06:25:30.893Z,11.67
2019-06-07T06:29:07.460Z,12.13
2019-06-07T06:33:30.816Z,11.90
2019-06-07T06:37:22.818Z,12.83
2019-06-07T06:41:29.693Z,13.73
2019-06-07T06:45:37.468Z,38.13
2019-06-07T06:49:46.855Z,12.37
2019-06-07T06:53:52.983Z,13.63
2019-06-07T06:57:59.820Z,12.67
2019-06-07T07:02:06.666Z,12.50
2019-06-07T07:06:26.089Z,12.07
2019-06-07T07:10:41.274Z,12.50
2019-06-07T07:14:51.764Z,12.10
2019-06-07T07:18:56.689Z,10.93
2019-06-07T07:23:03.811Z,12.07
2019-06-07T07:27:10.584Z,12.00
2019-06-07T07:31:17.391Z,11.90
2019-06-07T07:35:24.252Z,11.23
2019-06-07T07:39:31.074Z,11.40
2019-06-07T07:43:37.865Z,11.20
2019-06-07T07:48:02.083Z,10.53
2019-06-07T07:51:57.004Z,11.80
2019-06-07T07:56:01.755Z,11.10
2019-06-07T08:00:48.551Z,9.90
2019-06-07T08:04:29.278Z,9.43
2019-06-07T08:08:26.655Z,9.23
2019-06-07T08:12:55.658Z,9.37
2019-06-07T08:16:42.033Z,8.13
2019-06-07T08:21:08.597Z,7.47
2019-06-07T08:25:02.362Z,7.97
2019-06-07T08:29:06.212Z,7.90
2019-06-07T08:33:25.813Z,7.57
2019-06-07T08:37:21.568Z,6.67
2019-06-07T08:41:28.333Z,6.07
2019-06-07T08:45:35.096Z,6.70
2019-06-07T08:49:42.049Z,6.60
2019-06-07T08:54:02.826Z,5.90
2019-06-07T08:58:03.410Z,6.33
2019-06-07T09:02:20.941Z,6.80
2019-06-07T09:07:00.886Z,5.63
2019-06-07T09:10:24.071Z,6.60
2019-06-07T09:14:30.873Z,5.20
2019-06-07T09:18:43.895Z,5.73
2019-06-07T09:22:46.334Z,5.30
2019-06-07T09:26:54.055Z,4.90
2019-06-07T09:31:06.876Z,5.20
2019-06-07T09:35:16.610Z,5.40
2019-06-07T09:39:18.152Z,4.93
2019-06-07T09:44:00.756Z,5.50
2019-06-07T09:47:33.387Z,4.83
2019-06-07T09:51:40.140Z,4.63
2019-06-07T09:55:46.936Z,5.07
2019-06-07T09:59:53.710Z,4.47
2019-06-07T10:04:07.334Z,4.80
2019-06-07T10:08:41.176Z,5.13
2019-06-07T10:12:17.557Z,4.10
2019-06-07T10:16:26.829Z,5.23
2019-06-07T10:20:33.614Z,5.27
2019-06-07T10:24:40.350Z,4.67
2019-06-07T10:28:47.108Z,4.50
2019-06-07T10:32:53.832Z,4.43
2019-06-07T10:37:03.297Z,4.87
2019-06-07T10:41:09.012Z,4.90
2019-06-07T10:45:17.469Z,4.40
2019-06-07T10:49:24.226Z,4.93
2019-06-07T10:53:30.990Z,4.07
2019-06-07T10:57:37.770Z,4.80
2019-06-07T11:01:44.599Z,4.10
2019-06-07T11:05:52.355Z,5.43
2019-06-07T11:10:07.455Z,4.00
2019-06-07T11:14:08.608Z,4.33
2019-06-07T11:18:15.591Z,3.90
2019-06-07T11:22:22.306Z,4.27
2019-06-07T11:26:29.153Z,4.37
2019-06-07T11:30:35.959Z,4.67
2019-06-07T11:34:42.751Z,4.30
2019-06-07T11:38:49.550Z,4.07
2019-06-07T11:42:56.319Z,4.17
2019-06-07T11:47:03.147Z,4.57
2019-06-07T11:51:10.810Z,4.00
2019-06-07T11:55:19.097Z,4.43
2019-06-07T11:59:26.259Z,4.00
2019-06-07T12:03:33.170Z,4.40
2019-06-07T12:07:39.946Z,4.10
2019-06-07T12:11:46.732Z,4.30
2019-06-07T12:15:53.615Z,4.23
2019-06-07T12:20:00.386Z,4.30
2019-06-07T12:24:07.829Z,4.13
2019-06-07T12:28:14.696Z,4.13
2019-06-07T12:32:21.693Z,4.33
2019-06-07T12:36:28.540Z,4.50
2019-06-07T12:40:35.248Z,4.50
2019-06-07T12:44:42.010Z,4.30
2019-06-07T12:48:48.771Z,5.47
2019-06-07T12:52:55.530Z,3.97
2019-06-07T12:57:02.330Z,4.87
2019-06-07T13:01:09.178Z,4.40
2019-06-07T13:05:17.730Z,4.90
2019-06-07T13:09:24.546Z,4.87
2019-06-07T13:13:31.270Z,4.50
2019-06-07T13:17:38.118Z,4.30
2019-06-07T13:21:44.930Z,4.37
2019-06-07T13:25:51.645Z,5.60
2019-06-07T13:29:58.874Z,4.40
2019-06-07T13:34:05.744Z,4.90
2019-06-07T13:38:16.056Z,4.87
2019-06-07T13:42:23.021Z,4.63
2019-06-07T13:46:29.906Z,4.50
2019-06-07T13:50:36.746Z,4.60
2019-06-07T13:54:43.544Z,4.40
2019-06-07T13:58:50.301Z,4.60
2019-06-07T14:02:57.039Z,4.57
2019-06-07T14:07:03.772Z,4.43
2019-06-07T14:11:10.653Z,5.07
2019-06-07T14:15:18.115Z,4.57
2019-06-07T14:19:26.413Z,4.77
2019-06-07T14:23:45.856Z,4.90
2019-06-07T14:27:41.957Z,5.63
2019-06-07T14:31:48.743Z,4.70
2019-06-07T14:35:56.616Z,5.80
2019-06-07T14:40:03.891Z,4.87
2019-06-07T14:44:11.825Z,4.77
2019-06-07T14:48:18.606Z,4.33
2019-06-07T14:52:26.322Z,4.97
2019-06-07T14:56:33.389Z,5.00
2019-06-07T15:00:43.786Z,5.00
2019-06-07T15:04:50.679Z,5.27
2019-06-07T15:08:57.433Z,5.13
2019-06-07T15:13:04.278Z,5.47
2019-06-07T15:17:11.016Z,5.20
2019-06-07T15:21:17.909Z,5.07
2019-06-07T15:25:24.843Z,5.57
2019-06-07T15:29:31.829Z,5.43
2019-06-07T15:33:38.532Z,4.97
2019-06-07T15:37:45.417Z,5.03
2019-06-07T15:41:52.230Z,5.00
2019-06-07T15:45:59.015Z,6.53
2019-06-07T15:50:07.952Z,5.27
2019-06-07T15:54:15.771Z,7.53
2019-06-07T15:58:22.605Z,5.90
2019-06-07T16:02:29.519Z,4.90
2019-06-07T16:06:36.356Z,5.07
2019-06-07T16:10:43.432Z,5.70
2019-06-07T16:14:50.251Z,5.10
2019-06-07T16:18:57.384Z,5.00
2019-06-07T16:23:04.301Z,5.40
2019-06-07T16:27:11.056Z,5.70
2019-06-07T16:31:17.813Z,4.90
2019-06-07T16:35:24.794Z,6.30
2019-06-07T16:39:31.698Z,6.60
2019-06-07T16:43:38.664Z,4.93
2019-06-07T16:47:47.716Z,5.43
2019-06-07T16:51:54.151Z,5.50
2019-06-07T16:56:00.990Z,6.07
2019-06-07T17:00:10.209Z,5.40
2019-06-07T17:04:17.052Z,5.10
2019-06-07T17:08:24.374Z,7.13
2019-06-07T17:12:31.187Z,6.63
2019-06-07T17:16:38.815Z,5.20
2019-06-07T17:20:45.759Z,5.57
2019-06-07T17:24:53.779Z,6.83
2019-06-07T17:29:00.661Z,6.70
2019-06-07T17:33:07.467Z,5.77
2019-06-07T17:37:14.200Z,6.60
2019-06-07T17:41:21.197Z,7.93
2019-06-07T17:45:28.007Z,4.40
2019-06-07T17:49:34.775Z,2.87
2019-06-07T17:53:41.909Z,2.20
2019-06-07T17:57:49.671Z,2.20
2019-06-07T18:02:14.857Z,2.30
2019-06-07T18:06:06.574Z,2.30
2019-06-07T18:10:15.313Z,2.27
2019-06-07T18:14:22.156Z,2.03
2019-06-07T18:18:29.412Z,1.87
2019-06-07T18:22:36.135Z,2.07
2019-06-07T18:26:43.003Z,1.90
2019-06-07T18:30:50.790Z,1.80
2019-06-07T18:34:57.686Z,1.67
2019-06-07T18:39:05.463Z,1.60
2019-06-07T18:43:13.849Z,1.67
2019-06-07T18:47:20.660Z,1.57
2019-06-07T18:51:27.952Z,1.20
2019-06-07T18:55:35.895Z,2.07
2019-06-07T18:59:43.916Z,2.30
2019-06-07T19:03:52.030Z,1.70
2019-06-07T19:08:00.098Z,1.50
2019-06-07T19:12:07.687Z,1.70
2019-06-07T19:16:14.559Z,3.00
2019-06-07T19:20:22.440Z,2.20
2019-06-07T19:24:29.192Z,1.93
2019-06-07T19:28:39.607Z,1.93
2019-06-07T19:32:49.477Z,2.00
2019-06-07T19:36:55.639Z,1.80
2019-06-07T19:41:18.325Z,1.70
2019-06-07T19:45:30.674Z,1.97
2019-06-07T19:49:21.323Z,2.00
2019-06-07T19:53:28.170Z,2.00
2019-06-07T19:57:35.070Z,2.10
2019-06-07T20:01:42.906Z,2.00
2019-06-07T20:05:49.752Z,2.57
2019-06-07T20:09:56.603Z,2.10
2019-06-07T20:14:05.008Z,2.27
2019-06-07T20:18:12.548Z,2.60
2019-06-07T20:22:19.784Z,2.27
2019-06-07T20:26:26.754Z,2.47
2019-06-07T20:30:34.044Z,2.17
2019-06-07T20:34:44.457Z,2.20
2019-06-07T20:38:49.573Z,2.40
2019-06-07T20:42:57.420Z,2.10
2019-06-07T20:47:04.408Z,1.83
2019-06-07T20:51:11.215Z,2.40
2019-06-07T20:55:18.341Z,2.07
2019-06-07T20:59:25.168Z,2.17
2019-06-07T21:03:31.948Z,2.40
2019-06-07T21:07:38.726Z,2.97
2019-06-07T21:11:45.520Z,2.23
2019-06-07T21:15:52.193Z,2.50
2019-06-07T21:20:00.415Z,2.10
2019-06-07T21:24:07.340Z,2.03
2019-06-07T21:28:14.202Z,2.10
2019-06-07T21:32:20.893Z,2.30
2019-06-07T21:36:27.631Z,2.30
2019-06-07T21:40:34.464Z,1.57
2019-06-07T21:44:41.206Z,2.00
2019-06-07T21:48:48.052Z,2.07
2019-06-07T21:52:54.819Z,2.40
2019-06-07T21:57:02.738Z,2.50
2019-06-07T22:01:17.834Z,2.07
2019-06-07T22:05:24.576Z,2.23
2019-06-07T22:09:31.269Z,2.43
2019-06-07T22:13:38.348Z,2.10
2019-06-07T22:17:45.265Z,2.30
2019-06-07T22:22:02.681Z,2.40
2019-06-07T22:26:04.825Z,2.37
2019-06-07T22:30:12.659Z,2.00
2019-06-07T22:34:19.442Z,1.60
2019-06-07T22:38:26.192Z,2.10
2019-06-07T22:42:32.961Z,1.60
2019-06-07T22:46:41.194Z,1.93
2019-06-07T22:50:47.962Z,2.20
2019-06-07T22:54:54.693Z,2.10
2019-06-07T22:59:01.561Z,2.00
2019-06-07T23:03:08.554Z,2.00
2019-06-07T23:07:15.384Z,2.03
2019-06-07T23:11:22.144Z,2.57
2019-06-07T23:15:28.831Z,2.23
2019-06-07T23:19:35.598Z,2.07
2019-06-07T23:23:42.469Z,2.40
2019-06-07T23:27:49.339Z,2.10
2019-06-07T23:31:56.133Z,2.37
2019-06-07T23:36:03.032Z,3.17
2019-06-07T23:40:11.272Z,2.60
2019-06-07T23:44:19.309Z,2.40
2019-06-07T23:48:26.242Z,2.33
2019-06-07T23:52:33.103Z,2.03
2019-06-07T23:56:39.976Z,2.20
